createdAt,value
2019-06-08T00:00:58.323Z,78.54
2019-06-08T00:03:47.937Z,78.08
2019-06-08T00:06:37.126Z,79.44
2019-06-08T00:09:25.912Z,76.69
2019-06-08T00:12:15.376Z,79.26
2019-06-08T00:15:05.506Z,78.92
2019-06-08T00:17:54.143Z,79.79
2019-06-08T00:20:43.740Z,77.65
2019-06-08T00:23:33.414Z,78.81
2019-06-08T00:26:22.398Z,78.16
2019-06-08T00:29:12.074Z,78.42
2019-06-08T00:32:01.229Z,77.23
2019-06-08T00:34:50.914Z,79.06
2019-06-08T00:37:40.641Z,76.29
2019-06-08T00:40:30.328Z,76.24
2019-06-08T00:43:19.686Z,77.67
2019-06-08T00:46:08.978Z,77.08
2019-06-08T00:48:57.854Z,78.88
2019-06-08T00:51:47.403Z,75.29
2019-06-08T00:54:37.282Z,75.21
2019-06-08T00:57:26.195Z,71.85
2019-06-08T01:00:15.348Z,71.73
2019-06-08T01:03:04.935Z,71.25
2019-06-08T01:05:54.376Z,72.07
2019-06-08T01:08:43.340Z,72.70
2019-06-08T01:11:31.980Z,74.03
2019-06-08T01:14:22.844Z,74.02
2019-06-08T01:17:36.861Z,72.96
2019-06-08T01:20:27.500Z,73.28
2019-06-08T01:23:16.345Z,73.56
2019-06-08T01:26:05.664Z,74.41
2019-06-08T01:28:55.278Z,74.24
2019-06-08T01:31:44.630Z,74.24
2019-06-08T01:34:33.445Z,75.28
2019-06-08T01:37:22.993Z,75.68
2019-06-08T01:40:12.429Z,75.03
2019-06-08T01:43:01.162Z,75.24
2019-06-08T01:45:50.469Z,75.74
2019-06-08T01:48:39.148Z,74.74
2019-06-08T01:51:28.656Z,74.98
2019-06-08T01:54:17.223Z,75.00
2019-06-08T01:57:06.761Z,76.22
2019-06-08T01:59:55.736Z,76.00
2019-06-08T02:02:45.179Z,75.81
2019-06-08T02:05:35.557Z,75.50
2019-06-08T02:08:26.464Z,76.02
2019-06-08T02:11:15.397Z,76.40
2019-06-08T02:14:05.200Z,77.91
2019-06-08T02:16:55.050Z,76.75
2019-06-08T02:19:43.938Z,76.42
2019-06-08T02:22:33.140Z,76.06
2019-06-08T02:25:27.287Z,75.78
2019-06-08T02:28:15.979Z,75.79
2019-06-08T02:31:04.713Z,76.49
2019-06-08T02:33:54.620Z,74.19
2019-06-08T02:36:44.242Z,74.02
2019-06-08T02:39:35.449Z,74.00
2019-06-08T02:42:24.099Z,73.82
2019-06-08T02:45:13.918Z,72.55
2019-06-08T02:48:03.067Z,73.69
2019-06-08T02:50:56.304Z,73.44
2019-06-08T02:53:46.185Z,73.62
2019-06-08T02:56:36.763Z,73.28
2019-06-08T02:59:29.274Z,74.29
2019-06-08T03:02:18.927Z,73.99
2019-06-08T03:05:08.526Z,75.80
2019-06-08T03:07:58.260Z,74.56
2019-06-08T03:10:51.091Z,74.96
2019-06-08T03:13:42.578Z,71.42
2019-06-08T03:16:31.293Z,68.60
2019-06-08T03:19:23.120Z,67.33
2019-06-08T03:22:11.656Z,66.91
2019-06-08T03:25:01.092Z,66.33
2019-06-08T03:27:50.521Z,63.88
2019-06-08T03:30:51.929Z,64.16
2019-06-08T03:33:30.453Z,63.48
2019-06-08T03:36:19.507Z,64.20
2019-06-08T03:39:09.025Z,63.75
2019-06-08T03:41:57.357Z,64.19
2019-06-08T03:44:46.699Z,64.54
2019-06-08T03:47:37.281Z,63.63
2019-06-08T03:50:27.973Z,63.80
2019-06-08T03:53:16.364Z,64.33
2019-06-08T03:56:05.598Z,63.39
2019-06-08T03:58:54.873Z,63.52
2019-06-08T04:01:45.977Z,62.29
2019-06-08T04:04:37.736Z,63.50
2019-06-08T04:07:26.165Z,62.25
2019-06-08T04:10:16.455Z,62.85
2019-06-08T04:13:05.597Z,64.31
2019-06-08T04:15:55.155Z,62.89
2019-06-08T04:18:46.698Z,66.30
2019-06-08T04:21:37.765Z,63.02
2019-06-08T04:24:27.607Z,63.90
2019-06-08T04:27:17.276Z,65.54
2019-06-08T04:30:06.755Z,65.87
2019-06-08T04:32:55.566Z,65.82
2019-06-08T04:35:47.038Z,65.91
2019-06-08T04:38:35.372Z,68.59
2019-06-08T04:41:24.506Z,67.00
2019-06-08T04:44:13.763Z,67.17
2019-06-08T04:47:02.598Z,67.52
2019-06-08T04:49:51.448Z,67.59
2019-06-08T04:52:41.342Z,67.83
2019-06-08T04:55:31.928Z,68.58
2019-06-08T04:58:21.341Z,69.93
2019-06-08T05:01:10.361Z,69.19
2019-06-08T05:04:00.086Z,67.00
2019-06-08T05:06:49.768Z,69.30
2019-06-08T05:09:39.184Z,68.15
2019-06-08T05:12:28.414Z,67.61
2019-06-08T05:15:16.861Z,67.33
2019-06-08T05:18:05.616Z,65.06
2019-06-08T05:20:55.169Z,63.04
2019-06-08T05:23:45.580Z,63.56
2019-06-08T05:26:35.214Z,62.80
2019-06-08T05:29:24.586Z,63.39
2019-06-08T05:32:13.232Z,62.60
2019-06-08T05:35:02.227Z,62.77
2019-06-08T05:37:51.960Z,62.82
2019-06-08T05:40:41.874Z,60.34
2019-06-08T05:43:30.261Z,60.50
2019-06-08T05:46:18.638Z,60.95
2019-06-08T05:49:08.173Z,60.89
2019-06-08T05:51:57.478Z,61.27
2019-06-08T05:54:47.931Z,59.32
2019-06-08T05:57:36.562Z,61.37
2019-06-08T06:00:26.072Z,61.49
2019-06-08T06:03:15.400Z,59.01
2019-06-08T06:06:04.009Z,61.92
2019-06-08T06:08:52.754Z,59.38
2019-06-08T06:11:42.858Z,59.34
2019-06-08T06:14:32.138Z,59.05
2019-06-08T06:17:21.587Z,58.86
2019-06-08T06:20:10.498Z,58.48
2019-06-08T06:23:00.008Z,58.66
2019-06-08T06:25:49.604Z,59.70
2019-06-08T06:28:38.618Z,59.32
2019-06-08T06:31:27.004Z,57.76
2019-06-08T06:34:16.968Z,59.69
2019-06-08T06:37:06.654Z,60.22
2019-06-08T06:39:56.580Z,59.59
2019-06-08T06:42:47.925Z,58.80
2019-06-08T06:45:37.569Z,59.11
2019-06-08T06:48:26.869Z,59.59
2019-06-08T06:51:25.854Z,58.29
2019-06-08T06:54:05.675Z,58.44
2019-06-08T06:56:54.802Z,55.22
2019-06-08T06:59:45.580Z,54.83
2019-06-08T07:02:36.538Z,54.13
2019-06-08T07:05:25.939Z,54.38
2019-06-08T07:08:15.599Z,54.44
2019-06-08T07:11:05.170Z,53.92
2019-06-08T07:13:55.219Z,54.67
2019-06-08T07:16:45.796Z,54.17
2019-06-08T07:19:35.191Z,53.19
2019-06-08T07:22:23.971Z,53.04
2019-06-08T07:25:14.438Z,53.93
2019-06-08T07:28:03.995Z,54.89
2019-06-08T07:30:52.980Z,52.77
2019-06-08T07:33:41.858Z,52.60
2019-06-08T07:36:31.584Z,52.58
2019-06-08T07:39:20.681Z,52.33
2019-06-08T07:42:09.316Z,49.90
2019-06-08T07:45:00.404Z,50.88
2019-06-08T07:47:49.992Z,51.25
2019-06-08T07:50:39.582Z,52.37
2019-06-08T07:53:28.711Z,51.24
2019-06-08T07:56:17.029Z,52.32
2019-06-08T07:59:06.523Z,53.27
2019-06-08T08:01:56.738Z,51.49
2019-06-08T08:04:45.194Z,50.54
2019-06-08T08:07:33.949Z,50.17
2019-06-08T08:10:23.719Z,50.24
2019-06-08T08:13:12.945Z,49.23
2019-06-08T08:16:02.327Z,49.28
2019-06-08T08:18:51.141Z,50.16
2019-06-08T08:21:41.565Z,51.74
2019-06-08T08:24:30.895Z,52.86
2019-06-08T08:27:19.512Z,52.47
2019-06-08T08:30:08.579Z,52.50
2019-06-08T08:33:01.680Z,53.09
2019-06-08T08:35:50.564Z,53.00
2019-06-08T08:38:41.058Z,52.59
2019-06-08T08:41:30.455Z,51.83
2019-06-08T08:44:19.229Z,52.42
2019-06-08T08:47:08.665Z,51.88
2019-06-08T08:49:59.099Z,52.34
2019-06-08T08:52:47.824Z,50.95
2019-06-08T08:55:37.973Z,51.62
2019-06-08T08:58:28.033Z,51.26
2019-06-08T09:01:20.475Z,50.74
2019-06-08T09:04:08.878Z,49.70
2019-06-08T09:07:06.525Z,50.38
2019-06-08T09:09:48.374Z,48.06
2019-06-08T09:12:37.638Z,46.91
2019-06-08T09:15:31.208Z,48.25
2019-06-08T09:18:18.771Z,46.76
2019-06-08T09:21:08.562Z,49.36
2019-06-08T09:24:00.688Z,48.44
2019-06-08T09:26:47.942Z,49.67
2019-06-08T09:29:38.866Z,50.59
2019-06-08T09:32:28.753Z,50.67
2019-06-08T09:35:18.803Z,49.60
2019-06-08T09:38:08.557Z,49.28
2019-06-08T09:41:01.228Z,50.06
2019-06-08T09:43:48.786Z,48.41
2019-06-08T09:46:38.540Z,47.01
2019-06-08T09:49:28.245Z,47.04
2019-06-08T09:52:18.626Z,49.33
2019-06-08T09:55:09.420Z,47.80
2019-06-08T09:58:01.926Z,46.98
2019-06-08T10:00:49.098Z,47.48
2019-06-08T10:03:39.421Z,47.66
2019-06-08T10:06:28.472Z,47.67
2019-06-08T10:09:18.596Z,47.17
2019-06-08T10:12:09.962Z,48.62
2019-06-08T10:15:00.616Z,48.75
2019-06-08T10:17:50.034Z,46.03
2019-06-08T10:20:40.297Z,45.41
2019-06-08T10:23:34.211Z,47.92
2019-06-08T10:26:20.197Z,48.03
2019-06-08T10:29:10.658Z,46.83
2019-06-08T10:31:59.433Z,49.20
2019-06-08T10:34:48.976Z,50.14
2019-06-08T10:37:38.493Z,44.65
2019-06-08T10:40:28.566Z,47.28
2019-06-08T10:43:20.010Z,46.04
2019-06-08T10:46:16.160Z,46.36
2019-06-08T10:48:59.738Z,45.96
2019-06-08T10:51:49.067Z,42.43
2019-06-08T10:54:38.211Z,45.25
2019-06-08T10:57:28.005Z,46.84
2019-06-08T11:00:24.042Z,46.91
2019-06-08T11:03:12.421Z,43.81
2019-06-08T11:06:02.786Z,45.18
2019-06-08T11:08:52.140Z,44.30
2019-06-08T11:11:40.571Z,42.92
2019-06-08T11:14:30.272Z,45.95
2019-06-08T11:17:19.381Z,44.92
2019-06-08T11:20:13.003Z,46.08
2019-06-08T11:23:00.754Z,43.24
2019-06-08T11:25:50.200Z,44.52
2019-06-08T11:28:39.706Z,46.23
2019-06-08T11:31:32.061Z,45.56
2019-06-08T11:34:21.773Z,45.22
2019-06-08T11:37:13.093Z,45.34
2019-06-08T11:40:02.168Z,44.89
2019-06-08T11:42:50.477Z,44.92
2019-06-08T11:45:39.885Z,46.53
2019-06-08T11:48:28.664Z,46.42
2019-06-08T11:51:18.643Z,44.36
2019-06-08T11:54:25.224Z,46.30
2019-06-08T11:56:57.741Z,45.45
2019-06-08T11:59:48.456Z,44.60
2019-06-08T12:02:38.296Z,44.72
2019-06-08T12:05:27.882Z,44.46
2019-06-08T12:08:17.581Z,44.50
2019-06-08T12:11:10.677Z,42.07
2019-06-08T12:13:58.596Z,41.16
2019-06-08T12:16:48.589Z,40.25
2019-06-08T12:19:37.785Z,40.61
2019-06-08T12:22:28.195Z,40.24
2019-06-08T12:25:17.623Z,41.05
2019-06-08T12:28:06.468Z,42.07
2019-06-08T12:30:55.680Z,42.72
2019-06-08T12:33:45.094Z,43.28
2019-06-08T12:36:33.704Z,42.98
2019-06-08T12:39:22.574Z,43.96
2019-06-08T12:42:16.868Z,45.10
2019-06-08T12:45:02.644Z,42.44
2019-06-08T12:47:52.018Z,43.03
2019-06-08T12:50:41.596Z,44.09
2019-06-08T12:53:30.767Z,44.49
2019-06-08T12:56:23.998Z,40.77
2019-06-08T12:59:13.821Z,40.64
2019-06-08T13:02:01.606Z,39.95
2019-06-08T13:04:50.985Z,37.99
2019-06-08T13:07:40.677Z,37.41
2019-06-08T13:10:29.311Z,39.09
2019-06-08T13:13:19.998Z,36.24
2019-06-08T13:16:10.447Z,38.27
2019-06-08T13:19:00.252Z,39.12
2019-06-08T13:21:48.875Z,36.86
2019-06-08T13:24:38.573Z,38.61
2019-06-08T13:27:28.191Z,36.67
2019-06-08T13:30:22.884Z,38.49
2019-06-08T13:33:08.248Z,38.88
2019-06-08T13:35:57.988Z,36.98
2019-06-08T13:38:47.999Z,39.60
2019-06-08T13:41:38.390Z,39.15
2019-06-08T13:44:27.973Z,40.26
2019-06-08T13:47:18.897Z,40.65
2019-06-08T13:50:11.011Z,40.90
2019-06-08T13:52:59.272Z,39.80
2019-06-08T13:55:55.854Z,39.77
2019-06-08T13:58:38.343Z,38.14
2019-06-08T14:01:30.799Z,38.20
2019-06-08T14:04:19.469Z,38.59
2019-06-08T14:07:08.112Z,38.13
2019-06-08T14:09:58.442Z,37.50
2019-06-08T14:12:48.850Z,38.12
2019-06-08T14:15:38.457Z,37.87
2019-06-08T14:18:33.661Z,37.34
2019-06-08T14:21:25.767Z,36.76
2019-06-08T14:24:09.076Z,37.19
2019-06-08T14:26:58.727Z,38.98
2019-06-08T14:29:48.517Z,37.43
2019-06-08T14:32:38.270Z,36.71
2019-06-08T14:35:27.431Z,37.70
2019-06-08T14:38:20.277Z,38.39
2019-06-08T14:41:07.696Z,37.85
2019-06-08T14:43:58.598Z,37.76
2019-06-08T14:46:48.075Z,36.92
2019-06-08T14:49:38.454Z,37.91
2019-06-08T14:52:29.778Z,35.29
2019-06-08T14:55:20.123Z,36.87
2019-06-08T14:58:09.459Z,36.37
2019-06-08T15:00:58.065Z,34.69
2019-06-08T15:03:48.211Z,35.12
2019-06-08T15:06:38.227Z,35.99
2019-06-08T15:09:29.884Z,36.70
2019-06-08T15:12:19.441Z,36.50
2019-06-08T15:15:11.388Z,38.36
2019-06-08T15:18:00.868Z,37.34
2019-06-08T15:20:49.711Z,35.46
2019-06-08T15:23:38.291Z,35.63
2019-06-08T15:26:36.467Z,35.67
2019-06-08T15:29:18.566Z,36.01
2019-06-08T15:32:08.156Z,35.56
2019-06-08T15:34:58.065Z,35.89
2019-06-08T15:37:48.087Z,37.50
2019-06-08T15:40:37.900Z,36.59
2019-06-08T15:43:29.185Z,37.00
2019-06-08T15:46:18.355Z,37.17
2019-06-08T15:49:08.481Z,37.54
2019-06-08T15:51:57.890Z,36.42
2019-06-08T15:54:48.431Z,36.80
2019-06-08T15:57:38.735Z,35.95
2019-06-08T16:00:28.371Z,36.30
2019-06-08T16:03:17.368Z,36.19
2019-06-08T16:06:06.776Z,35.60
2019-06-08T16:08:56.448Z,35.88
2019-06-08T16:11:46.153Z,34.63
2019-06-08T16:14:35.638Z,34.93
2019-06-08T16:17:25.122Z,35.10
2019-06-08T16:20:13.834Z,36.15
2019-06-08T16:23:02.894Z,34.61
2019-06-08T16:28:39.589Z,34.18
2019-06-08T16:31:31.069Z,34.35
2019-06-08T16:34:20.631Z,33.01
2019-06-08T16:37:10.292Z,33.42
2019-06-08T16:39:59.433Z,33.71
2019-06-08T16:42:48.991Z,31.47
2019-06-08T16:45:39.593Z,31.81
2019-06-08T16:48:28.123Z,30.69
2019-06-08T16:51:17.417Z,31.43
2019-06-08T16:54:06.671Z,30.99
2019-06-08T16:57:08.890Z,31.54
2019-06-08T16:59:46.498Z,32.32
2019-06-08T17:02:37.030Z,31.59
2019-06-08T17:05:25.812Z,30.95
2019-06-08T17:08:15.199Z,32.56
2019-06-08T17:11:04.693Z,31.59
2019-06-08T17:13:53.732Z,31.68
2019-06-08T17:16:42.600Z,32.24
2019-06-08T17:19:32.124Z,29.51
2019-06-08T17:22:21.741Z,31.14
2019-06-08T17:25:10.615Z,34.97
2019-06-08T17:27:58.963Z,37.10
2019-06-08T17:30:48.206Z,36.31
2019-06-08T17:33:37.710Z,37.08
2019-06-08T17:36:26.583Z,38.68
2019-06-08T17:39:15.542Z,39.54
2019-06-08T17:42:05.561Z,40.03
2019-06-08T17:44:54.717Z,41.70
2019-06-08T17:47:43.849Z,42.83
2019-06-08T17:50:32.752Z,41.82
2019-06-08T17:53:21.812Z,40.84
2019-06-08T17:56:10.983Z,42.62
2019-06-08T17:59:00.544Z,42.70
2019-06-08T18:01:49.237Z,43.65
2019-06-08T18:04:39.851Z,48.70
2019-06-08T18:07:28.630Z,44.45
2019-06-08T18:10:18.187Z,45.62
2019-06-08T18:13:07.391Z,49.99
2019-06-08T18:15:57.736Z,50.69
2019-06-08T18:18:48.072Z,48.13
2019-06-08T18:21:38.928Z,47.54
2019-06-08T18:24:28.025Z,47.14
2019-06-08T18:27:18.351Z,47.97
2019-06-08T18:30:08.952Z,50.62
2019-06-08T18:32:58.061Z,52.04
2019-06-08T18:35:49.346Z,51.11
2019-06-08T18:38:40.842Z,48.54
2019-06-08T18:41:28.121Z,54.96
2019-06-08T18:44:17.646Z,57.95
2019-06-08T18:47:07.435Z,60.03
2019-06-08T18:49:57.419Z,59.40
2019-06-08T18:52:49.016Z,61.69
2019-06-08T18:55:40.517Z,63.86
2019-06-08T18:58:27.942Z,64.07
2019-06-08T19:01:21.635Z,65.90
2019-06-08T19:04:07.639Z,65.87
2019-06-08T19:06:58.951Z,63.78
2019-06-08T19:09:48.099Z,67.02
2019-06-08T19:12:39.408Z,70.05
2019-06-08T19:15:32.807Z,68.96
2019-06-08T19:18:21.942Z,70.31
2019-06-08T19:21:11.297Z,71.04
2019-06-08T19:24:00.819Z,72.27
2019-06-08T19:26:49.282Z,72.62
2019-06-08T19:29:41.003Z,72.98
2019-06-08T19:32:29.070Z,74.21
2019-06-08T19:35:19.591Z,74.57
2019-06-08T19:38:09.061Z,74.55
2019-06-08T19:41:00.198Z,76.21
2019-06-08T19:43:53.962Z,77.91
2019-06-08T19:46:38.223Z,77.55
2019-06-08T19:49:28.291Z,79.27
2019-06-08T19:52:18.697Z,80.72
2019-06-08T19:55:08.673Z,81.74
2019-06-08T19:57:58.011Z,82.38
2019-06-08T20:00:52.344Z,84.56
2019-06-08T20:03:38.028Z,85.59
2019-06-08T20:06:27.774Z,86.26
2019-06-08T20:09:17.576Z,85.14
2019-06-08T20:12:08.134Z,84.83
2019-06-08T20:14:57.646Z,85.74
2019-06-08T20:17:48.902Z,85.89
2019-06-08T20:20:38.132Z,85.89
2019-06-08T20:23:27.582Z,86.89
2019-06-08T20:26:17.616Z,86.69
2019-06-08T20:29:13.613Z,87.35
2019-06-08T20:31:58.299Z,87.74
2019-06-08T20:34:49.348Z,87.79
2019-06-08T20:37:38.100Z,88.25
2019-06-08T20:40:27.957Z,88.10
2019-06-08T20:43:17.827Z,88.47
2019-06-08T20:46:08.110Z,88.11
2019-06-08T20:48:57.691Z,88.66
2019-06-08T20:51:49.211Z,87.98
2019-06-08T20:54:37.497Z,88.32
2019-06-08T20:57:26.678Z,87.48
2019-06-08T21:00:16.231Z,87.48
2019-06-08T21:03:07.981Z,88.35
2019-06-08T21:05:58.266Z,89.69
2019-06-08T21:08:48.950Z,89.24
2019-06-08T21:11:38.083Z,90.14
2019-06-08T21:14:27.364Z,90.77
2019-06-08T21:17:17.953Z,90.56
2019-06-08T21:20:08.548Z,91.55
2019-06-08T21:22:59.913Z,89.75
2019-06-08T21:25:50.752Z,90.33
2019-06-08T21:28:39.556Z,89.66
2019-06-08T21:31:28.545Z,90.04
2019-06-08T21:34:18.179Z,90.23
2019-06-08T21:37:09.152Z,91.08
2019-06-08T21:40:03.823Z,91.54
2019-06-08T21:42:52.166Z,92.02
2019-06-08T21:45:40.453Z,91.65
2019-06-08T21:48:29.566Z,91.26
2019-06-08T21:51:19.044Z,90.79
2019-06-08T21:54:07.741Z,89.61
2019-06-08T21:57:00.661Z,89.95
2019-06-08T21:59:59.366Z,89.91
2019-06-08T22:02:38.810Z,87.82
2019-06-08T22:05:27.648Z,86.56
2019-06-08T22:08:17.375Z,86.09
2019-06-08T22:11:08.332Z,87.53
2019-06-08T22:13:59.260Z,88.90
2019-06-08T22:16:47.734Z,89.27
2019-06-08T22:19:38.047Z,90.68
2019-06-08T22:22:27.692Z,91.02
2019-06-08T22:25:17.560Z,91.33
2019-06-08T22:28:07.330Z,91.48
2019-06-08T22:30:59.777Z,91.92
2019-06-08T22:33:48.334Z,91.86
2019-06-08T22:36:37.633Z,92.81
2019-06-08T22:39:27.977Z,93.26
2019-06-08T22:42:17.696Z,93.41
2019-06-08T22:45:08.237Z,93.20
2019-06-08T22:48:00.142Z,92.52
2019-06-08T22:50:47.786Z,90.02
2019-06-08T22:53:38.337Z,90.66
2019-06-08T22:56:28.023Z,91.71
2019-06-08T22:59:17.509Z,92.17
2019-06-08T23:02:09.086Z,92.10
2019-06-08T23:04:59.516Z,92.71
2019-06-08T23:07:48.848Z,93.38
2019-06-08T23:10:37.522Z,92.81
2019-06-08T23:13:28.076Z,92.05
2019-06-08T23:16:18.177Z,92.44
2019-06-08T23:19:08.051Z,92.01
2019-06-08T23:21:59.856Z,92.66
2019-06-08T23:24:47.849Z,93.25
2019-06-08T23:27:37.995Z,93.26
2019-06-08T23:30:28.097Z,93.57
2019-06-08T23:33:18.908Z,93.43
2019-06-08T23:36:39.423Z,92.89
2019-06-08T23:38:59.092Z,90.51
2019-06-08T23:41:48.412Z,90.95
2019-06-08T23:44:37.821Z,90.04
2019-06-08T23:47:27.487Z,90.39
2019-06-08T23:50:17.754Z,91.84
2019-06-08T23:53:09.158Z,90.96
2019-06-08T23:55:59.543Z,91.77
2019-06-08T23:58:48.240Z,92.17
